createdAt,value
2022-12-04T00:04:21.002Z,101330.60
2022-12-04T00:09:24.415Z,101327.45
2022-12-04T00:14:27.892Z,101324.31
2022-12-04T00:19:31.273Z,101319.20
2022-12-04T00:24:35.171Z,101328.08
2022-12-04T00:29:38.583Z,101331.55
2022-12-04T00:34:41.997Z,101330.08
2022-12-04T00:39:45.516Z,101332.38
2022-12-04T00:44:48.928Z,101337.41
2022-12-04T00:49:52.521Z,101342.61
2022-12-04T00:54:56.174Z,101345.50
2022-12-04T01:00:00.349Z,101340.79
2022-12-04T01:05:04.251Z,101338.17
2022-12-04T01:10:12.151Z,101332.08
2022-12-04T01:15:16.098Z,101325.10
2022-12-04T01:20:20.161Z,101321.46
2022-12-04T01:25:23.544Z,101323.92
2022-12-04T01:30:26.943Z,101324.33
2022-12-04T01:35:30.717Z,101323.73
2022-12-04T01:40:34.333Z,101319.54
2022-12-04T01:45:41.543Z,101317.92
2022-12-04T01:50:46.084Z,101312.52
2022-12-04T01:55:50.124Z,101318.35
2022-12-04T02:00:58.514Z,101308.59
2022-12-04T02:06:02.544Z,101302.65
2022-12-04T02:11:05.817Z,101303.15
2022-12-04T02:16:35.635Z,101309.98
2022-12-04T02:21:47.184Z,101319.06
2022-12-04T02:26:56.586Z,101310.87
2022-12-04T02:32:23.446Z,101305.73
2022-12-04T02:37:41.336Z,101308.49
2022-12-04T02:43:05.807Z,101306.21
2022-12-04T02:48:09.433Z,101304.52
2022-12-04T02:53:18.067Z,101307.17
2022-12-04T02:58:27.605Z,101306.27
2022-12-04T03:03:33.808Z,101304.18
2022-12-04T03:08:48.092Z,101299.71
2022-12-04T03:14:00.297Z,101300.66
2022-12-04T03:19:16.966Z,101302.52
2022-12-04T03:24:27.086Z,101301.58
2022-12-04T03:29:43.720Z,101301.09
2022-12-04T03:34:57.253Z,101296.64
2022-12-04T03:40:15.628Z,101292.56
2022-12-04T03:45:37.454Z,101288.12
2022-12-04T03:50:50.719Z,101284.95
2022-12-04T03:56:10.355Z,101278.72
2022-12-04T04:01:17.998Z,101277.57
2022-12-04T04:06:26.344Z,101278.82
2022-12-04T04:11:38.674Z,101277.95
2022-12-04T04:17:08.331Z,101280.19
2022-12-04T04:22:30.932Z,101281.34
2022-12-04T04:27:34.331Z,101273.69
2022-12-04T04:32:49.733Z,101280.59
2022-12-04T04:38:08.559Z,101282.20
2022-12-04T04:43:32.967Z,101279.88
2022-12-04T04:48:51.350Z,101279.58
2022-12-04T04:53:58.582Z,101280.96
2022-12-04T04:59:01.952Z,101289.23
2022-12-04T05:04:06.817Z,101293.79
2022-12-04T05:09:10.179Z,101290.69
2022-12-04T05:14:13.572Z,101292.81
2022-12-04T05:19:35.478Z,101285.39
2022-12-04T05:24:38.976Z,101285.79
2022-12-04T05:29:42.351Z,101294.92
2022-12-04T05:34:50.931Z,101287.37
2022-12-04T05:39:54.756Z,101283.23
2022-12-04T05:44:58.585Z,101293.13
2022-12-04T05:50:01.937Z,101291.52
2022-12-04T05:55:06.142Z,101301.63
2022-12-04T06:00:10.176Z,101302.00
2022-12-04T06:05:16.988Z,101301.52
2022-12-04T06:10:20.367Z,101295.42
2022-12-04T06:15:24.543Z,101292.87
2022-12-04T06:20:28.439Z,101298.77
2022-12-04T06:25:31.943Z,101310.39
2022-12-04T06:30:35.335Z,101322.47
2022-12-04T06:35:38.733Z,101313.75
2022-12-04T06:40:42.064Z,101326.14
2022-12-04T06:45:45.599Z,101337.37
2022-12-04T06:50:49.071Z,101341.13
2022-12-04T06:55:52.421Z,101338.45
2022-12-04T07:00:57.259Z,101336.60
2022-12-04T07:06:20.047Z,101337.38
2022-12-04T07:11:24.118Z,101341.31
2022-12-04T07:16:29.157Z,101345.00
2022-12-04T07:21:33.579Z,101343.35
2022-12-04T07:26:37.289Z,101344.53
2022-12-04T07:31:41.035Z,101343.45
2022-12-04T07:36:44.448Z,101349.45
2022-12-04T07:41:47.795Z,101349.30
2022-12-04T07:46:51.220Z,101344.30
2022-12-04T07:51:54.617Z,101339.54
2022-12-04T07:56:58.503Z,101338.92
2022-12-04T08:02:01.980Z,101332.66
2022-12-04T08:07:05.478Z,101333.04
2022-12-04T08:12:08.983Z,101339.55
2022-12-04T08:17:12.508Z,101334.26
2022-12-04T08:22:20.353Z,101340.31
2022-12-04T08:27:26.833Z,101349.55
2022-12-04T08:32:30.211Z,101351.61
2022-12-04T08:37:33.669Z,101357.11
2022-12-04T08:42:37.013Z,101364.08
2022-12-04T08:47:40.377Z,101367.38
2022-12-04T08:52:43.777Z,101364.61
2022-12-04T08:57:47.157Z,101357.40
2022-12-04T09:02:50.590Z,101356.48
2022-12-04T09:07:54.013Z,101348.80
2022-12-04T09:12:57.490Z,101348.80
2022-12-04T09:18:01.822Z,101346.92
2022-12-04T09:23:06.091Z,101343.45
2022-12-04T09:28:09.491Z,101340.31
2022-12-04T09:33:13.193Z,101336.14
2022-12-04T09:38:16.524Z,101328.39
2022-12-04T09:43:36.712Z,101328.16
2022-12-04T09:48:43.292Z,101324.77
2022-12-04T09:53:56.643Z,101329.19
2022-12-04T09:59:17.304Z,101327.41
2022-12-04T10:04:20.852Z,101323.27
2022-12-04T10:09:40.420Z,101326.02
2022-12-04T10:15:05.811Z,101324.76
2022-12-04T10:20:45.987Z,101323.29
2022-12-04T10:25:52.311Z,101312.54
2022-12-04T10:30:59.923Z,101313.45
2022-12-04T10:36:04.127Z,101307.05
2022-12-04T10:41:18.164Z,101300.93
2022-12-04T10:46:23.928Z,101293.38
2022-12-04T10:51:29.337Z,101291.78
2022-12-04T10:56:32.705Z,101282.99
2022-12-04T11:01:36.223Z,101278.14
2022-12-04T11:06:39.989Z,101265.63
2022-12-04T11:11:43.357Z,101255.31
2022-12-04T11:16:50.248Z,101253.66
2022-12-04T11:21:56.383Z,101248.38
2022-12-04T11:27:00.691Z,101244.80
2022-12-04T11:32:08.017Z,101243.29
2022-12-04T11:37:22.679Z,101245.88
2022-12-04T11:42:29.608Z,101241.62
2022-12-04T11:47:34.010Z,101240.33
2022-12-04T11:52:52.642Z,101245.20
2022-12-04T11:58:18.024Z,101250.86
2022-12-04T12:03:39.009Z,101245.14
2022-12-04T12:08:42.462Z,101241.83
2022-12-04T12:14:05.721Z,101236.96
2022-12-04T12:19:17.793Z,101232.36
2022-12-04T12:24:32.465Z,101234.34
2022-12-04T12:29:51.220Z,101226.48
2022-12-04T12:34:55.644Z,101221.39
2022-12-04T12:39:59.350Z,101220.86
2022-12-04T12:45:12.228Z,101224.38
2022-12-04T12:50:44.995Z,101225.81
2022-12-04T12:56:51.576Z,101228.48
2022-12-04T13:02:01.120Z,101230.62
2022-12-04T13:07:14.672Z,101226.98
2022-12-04T13:12:20.717Z,101220.38
2022-12-04T13:17:38.719Z,101223.60
2022-12-04T13:23:20.025Z,101221.61
2022-12-04T13:28:49.365Z,101217.67
2022-12-04T13:34:17.321Z,101212.52
2022-12-04T13:39:54.866Z,101220.55
2022-12-04T13:45:03.238Z,101223.53
2022-12-04T13:50:28.535Z,101227.25
2022-12-04T13:55:40.242Z,101224.17
2022-12-04T14:00:44.685Z,101242.63
2022-12-04T14:05:48.457Z,101252.64
2022-12-04T14:11:04.109Z,101251.25
2022-12-04T14:16:16.766Z,101249.27
2022-12-04T14:21:20.240Z,101245.24
2022-12-04T14:27:09.992Z,101244.85
2022-12-04T14:31:55.435Z,101252.45
2022-12-04T14:37:00.241Z,101257.84
2022-12-04T14:42:14.551Z,101258.30
2022-12-04T14:47:42.084Z,101269.56
2022-12-04T14:53:11.774Z,101276.23
2022-12-04T14:58:36.274Z,101280.74
2022-12-04T15:03:45.449Z,101283.91
2022-12-04T15:09:16.863Z,101277.52
2022-12-04T15:14:20.157Z,101268.85
2022-12-04T15:19:23.449Z,101271.83
2022-12-04T15:24:27.729Z,101275.23
2022-12-04T15:29:45.669Z,101281.62
2022-12-04T15:35:09.418Z,101283.67
2022-12-04T15:40:31.484Z,101285.74
2022-12-04T15:45:38.054Z,101282.38
2022-12-04T15:50:42.437Z,101280.92
2022-12-04T15:55:55.515Z,101279.25
2022-12-04T16:01:06.646Z,101276.05
2022-12-04T16:06:20.816Z,101277.52
2022-12-04T16:11:30.587Z,101268.36
2022-12-04T16:16:35.431Z,101261.54
2022-12-04T16:21:38.828Z,101262.58
2022-12-04T16:26:42.452Z,101260.29
2022-12-04T16:31:46.375Z,101254.33
2022-12-04T16:36:50.085Z,101262.86
2022-12-04T16:41:53.526Z,101254.55
2022-12-04T16:46:56.959Z,101250.95
2022-12-04T16:52:00.355Z,101251.55
2022-12-04T16:57:04.207Z,101250.95
2022-12-04T17:02:16.591Z,101249.70
2022-12-04T17:07:20.689Z,101243.80
2022-12-04T17:12:24.004Z,101243.46
2022-12-04T17:17:27.387Z,101245.84
2022-12-04T17:22:31.366Z,101246.52
2022-12-04T17:27:35.454Z,101245.64
2022-12-04T17:32:38.799Z,101241.55
2022-12-04T17:37:42.188Z,101243.06
2022-12-04T17:42:45.542Z,101240.06
2022-12-04T17:47:48.829Z,101243.77
2022-12-04T17:52:52.361Z,101249.01
2022-12-04T17:57:55.734Z,101251.84
2022-12-04T18:02:59.150Z,101243.59
2022-12-04T18:08:02.624Z,101233.23
2022-12-04T18:13:06.092Z,101224.94
2022-12-04T18:18:09.662Z,101227.52
2022-12-04T18:25:59.762Z,101225.83
2022-12-04T18:31:05.415Z,101225.68
2022-12-04T18:36:16.591Z,101221.73
2022-12-04T18:41:20.093Z,101220.52
2022-12-04T18:46:24.897Z,101220.69
2022-12-04T18:51:33.070Z,101217.59
2022-12-04T18:56:36.909Z,101226.77
2022-12-04T19:01:41.840Z,101233.48
2022-12-04T19:06:50.699Z,101235.66
2022-12-04T19:11:54.197Z,101249.23
2022-12-04T19:16:57.757Z,101254.10
2022-12-04T19:22:02.601Z,101253.02
2022-12-04T19:27:12.355Z,101250.23
2022-12-04T19:32:15.891Z,101247.27
2022-12-04T19:37:19.394Z,101249.41
2022-12-04T19:42:22.831Z,101247.75
2022-12-04T19:47:26.755Z,101248.71
2022-12-04T19:52:30.145Z,101238.02
2022-12-04T19:57:33.589Z,101226.00
2022-12-04T20:02:37.253Z,101224.70
2022-12-04T20:07:40.890Z,101221.13
2022-12-04T20:12:44.437Z,101222.29
2022-12-04T20:17:47.851Z,101231.93
2022-12-04T20:22:51.375Z,101244.83
2022-12-04T20:27:54.935Z,101255.45
2022-12-04T20:32:58.425Z,101266.04
2022-12-04T20:38:03.529Z,101276.21
2022-12-04T20:43:07.803Z,101275.32
2022-12-04T20:48:13.577Z,101271.05
2022-12-04T20:53:18.084Z,101268.79
2022-12-04T20:58:23.554Z,101265.11
2022-12-04T21:03:29.368Z,101271.79
2022-12-04T21:08:52.662Z,101270.95
2022-12-04T21:14:25.693Z,101257.34
2022-12-04T21:19:30.291Z,101240.98
2022-12-04T21:24:38.896Z,101231.57
2022-12-04T21:29:43.858Z,101222.64
2022-12-04T21:34:48.453Z,101226.19
2022-12-04T21:39:51.942Z,101228.40
2022-12-04T21:44:55.378Z,101222.67
2022-12-04T21:50:00.010Z,101230.02
2022-12-04T21:55:05.361Z,101233.59
2022-12-04T22:00:09.261Z,101226.84
2022-12-04T22:05:12.540Z,101216.80
2022-12-04T22:10:15.868Z,101215.06
2022-12-04T22:15:19.376Z,101214.45
2022-12-04T22:20:23.814Z,101208.23
2022-12-04T22:25:29.677Z,101205.00
2022-12-04T22:30:34.775Z,101198.23
2022-12-04T22:35:38.162Z,101196.02
2022-12-04T22:45:39.042Z,101196.65
2022-12-04T22:50:42.403Z,101197.08
2022-12-04T22:55:45.774Z,101197.48
2022-12-04T23:00:49.240Z,101194.83
2022-12-04T23:05:52.761Z,101191.55
2022-12-04T23:10:56.169Z,101196.18
2022-12-04T23:16:02.454Z,101194.60
2022-12-04T23:21:10.830Z,101194.47
2022-12-04T23:26:17.111Z,101193.38
2022-12-04T23:31:21.004Z,101193.76
2022-12-04T23:36:25.175Z,101187.77
2022-12-04T23:41:31.611Z,101181.62
2022-12-04T23:46:34.975Z,101173.27
2022-12-04T23:51:38.394Z,101176.98
2022-12-04T23:56:41.888Z,101181.85
